createdAt,value
2019-05-20T00:00:26.752Z,14.70
2019-05-20T00:02:56.159Z,14.60
2019-05-20T00:05:25.915Z,14.60
2019-05-20T00:07:55.556Z,14.60
2019-05-20T00:10:24.967Z,14.60
2019-05-20T00:12:54.451Z,14.60
2019-05-20T00:15:23.953Z,14.50
2019-05-20T00:17:53.397Z,14.50
2019-05-20T00:20:22.949Z,14.50
2019-05-20T00:22:52.447Z,14.40
2019-05-20T00:25:21.915Z,14.40
2019-05-20T00:27:51.413Z,14.40
2019-05-20T00:30:21.017Z,14.40
2019-05-20T00:32:50.573Z,14.30
2019-05-20T00:35:20.054Z,14.30
2019-05-20T00:37:49.547Z,14.30
2019-05-20T00:40:19.034Z,14.30
2019-05-20T00:42:48.510Z,14.30
2019-05-20T00:45:17.988Z,14.20
2019-05-20T00:47:47.457Z,14.20
2019-05-20T00:50:16.858Z,14.20
2019-05-20T00:52:46.304Z,14.20
2019-05-20T00:55:29.550Z,14.10
2019-05-20T00:57:59.067Z,14.10
2019-05-20T01:00:28.534Z,14.10
2019-05-20T01:02:59.907Z,14.10
2019-05-20T01:05:29.416Z,14.10
2019-05-20T01:07:59.059Z,14.00
2019-05-20T01:10:28.464Z,14.00
2019-05-20T01:12:58.006Z,14.00
2019-05-20T01:15:27.537Z,14.00
2019-05-20T01:17:56.935Z,14.00
2019-05-20T01:20:26.431Z,13.90
2019-05-20T01:22:55.830Z,13.90
2019-05-20T01:25:25.224Z,13.90
2019-05-20T01:27:54.848Z,13.90
2019-05-20T01:30:24.322Z,13.90
2019-05-20T01:32:53.880Z,13.80
2019-05-20T01:35:23.332Z,13.80
2019-05-20T01:37:52.739Z,13.80
2019-05-20T01:40:22.211Z,13.80
2019-05-20T01:42:51.730Z,13.80
2019-05-20T01:45:21.270Z,13.80
2019-05-20T01:47:50.735Z,13.80
2019-05-20T01:50:20.239Z,13.70
2019-05-20T01:52:49.638Z,13.70
2019-05-20T01:55:19.110Z,13.70
2019-05-20T01:57:48.533Z,13.70
2019-05-20T02:00:18.004Z,13.70
2019-05-20T02:02:47.411Z,13.70
2019-05-20T02:07:59.324Z,13.70
2019-05-20T02:10:28.825Z,13.60
2019-05-20T02:12:58.172Z,13.60
2019-05-20T02:15:31.918Z,13.60
2019-05-20T02:18:01.236Z,13.60
2019-05-20T02:20:30.632Z,13.60
2019-05-20T02:23:15.678Z,13.60
2019-05-20T02:25:47.091Z,13.60
2019-05-20T02:28:16.530Z,13.60
2019-05-20T02:30:45.815Z,13.60
2019-05-20T02:33:15.136Z,13.50
2019-05-20T02:35:44.397Z,13.50
2019-05-20T02:38:13.858Z,13.50
2019-05-20T02:40:43.203Z,13.50
2019-05-20T02:43:12.913Z,13.50
2019-05-20T02:45:42.235Z,13.50
2019-05-20T02:48:11.711Z,13.50
2019-05-20T02:50:41.142Z,13.50
2019-05-20T02:53:10.430Z,13.50
2019-05-20T02:55:39.833Z,13.50
2019-05-20T02:58:09.154Z,13.50
2019-05-20T03:00:38.583Z,13.50
2019-05-20T03:03:07.961Z,13.50
2019-05-20T03:05:37.361Z,13.50
2019-05-20T03:08:06.850Z,13.50
2019-05-20T03:10:36.337Z,13.40
2019-05-20T03:13:05.669Z,13.40
2019-05-20T03:15:35.021Z,13.40
2019-05-20T03:18:04.348Z,13.40
2019-05-20T03:20:33.641Z,13.40
2019-05-20T03:23:02.996Z,13.40
2019-05-20T03:25:32.398Z,13.40
2019-05-20T03:28:01.849Z,13.40
2019-05-20T03:30:31.280Z,13.40
2019-05-20T03:33:00.759Z,13.40
2019-05-20T03:35:30.170Z,13.40
2019-05-20T03:37:59.498Z,13.40
2019-05-20T03:40:28.906Z,13.40
2019-05-20T03:42:58.318Z,13.40
2019-05-20T03:45:27.720Z,13.40
2019-05-20T03:47:57.301Z,13.40
2019-05-20T03:50:26.682Z,13.40
2019-05-20T03:52:56.317Z,13.40
2019-05-20T03:55:25.647Z,13.40
2019-05-20T03:57:55.273Z,13.50
2019-05-20T04:00:45.498Z,13.50
2019-05-20T04:03:15.327Z,13.50
2019-05-20T04:05:45.060Z,13.50
2019-05-20T04:08:14.384Z,13.50
2019-05-20T04:10:43.733Z,13.50
2019-05-20T04:13:13.087Z,13.60
2019-05-20T04:15:42.505Z,13.60
2019-05-20T04:18:11.806Z,13.60
2019-05-20T04:20:41.126Z,13.60
2019-05-20T04:23:10.522Z,13.70
2019-05-20T04:25:40.026Z,13.70
2019-05-20T04:28:09.418Z,13.70
2019-05-20T04:30:38.793Z,13.70
2019-05-20T04:33:08.226Z,13.70
2019-05-20T04:35:37.632Z,13.80
2019-05-20T04:38:06.879Z,13.80
2019-05-20T04:40:36.234Z,13.80
2019-05-20T04:43:05.571Z,13.90
2019-05-20T04:45:35.248Z,14.00
2019-05-20T04:48:04.668Z,14.00
2019-05-20T04:50:34.052Z,14.20
2019-05-20T04:53:03.452Z,14.30
2019-05-20T04:55:32.805Z,14.40
2019-05-20T04:58:02.201Z,14.50
2019-05-20T05:00:53.429Z,14.60
2019-05-20T05:03:23.394Z,14.80
2019-05-20T05:05:52.897Z,14.90
2019-05-20T05:08:22.196Z,14.90
2019-05-20T05:10:51.657Z,15.00
2019-05-20T05:13:21.240Z,15.00
2019-05-20T05:15:50.598Z,14.90
2019-05-20T05:18:19.996Z,14.90
2019-05-20T05:20:49.705Z,14.90
2019-05-20T05:23:19.305Z,14.80
2019-05-20T05:25:48.632Z,14.80
2019-05-20T05:28:17.882Z,14.80
2019-05-20T05:30:47.510Z,14.80
2019-05-20T05:33:16.912Z,14.80
2019-05-20T05:35:53.304Z,14.70
2019-05-20T05:38:17.368Z,14.80
2019-05-20T05:40:46.768Z,14.70
2019-05-20T05:43:16.246Z,14.70
2019-05-20T05:45:45.609Z,14.70
2019-05-20T05:48:15.011Z,14.70
2019-05-20T05:50:44.416Z,14.70
2019-05-20T05:53:13.916Z,14.70
2019-05-20T05:55:43.251Z,14.80
2019-05-20T05:58:12.536Z,14.90
2019-05-20T06:00:41.960Z,15.10
2019-05-20T06:03:11.289Z,15.00
2019-05-20T06:05:40.716Z,15.00
2019-05-20T06:08:10.137Z,15.00
2019-05-20T06:10:39.411Z,15.00
2019-05-20T06:13:08.826Z,15.00
2019-05-20T06:15:38.256Z,15.00
2019-05-20T06:18:07.650Z,14.90
2019-05-20T06:20:37.044Z,14.90
2019-05-20T06:23:06.668Z,14.90
2019-05-20T06:25:35.988Z,14.80
2019-05-20T06:28:05.381Z,14.80
2019-05-20T06:30:41.041Z,14.90
2019-05-20T06:33:10.433Z,14.90
2019-05-20T06:35:39.924Z,15.00
2019-05-20T06:38:10.967Z,15.10
2019-05-20T06:40:40.437Z,15.20
2019-05-20T06:43:09.882Z,15.30
2019-05-20T06:45:39.286Z,15.40
2019-05-20T06:48:08.463Z,15.60
2019-05-20T06:50:37.754Z,15.70
2019-05-20T06:53:07.121Z,15.90
2019-05-20T06:55:36.465Z,16.00
2019-05-20T06:58:05.954Z,16.10
2019-05-20T07:00:39.505Z,16.20
2019-05-20T07:03:08.905Z,16.30
2019-05-20T07:05:38.288Z,16.30
2019-05-20T07:08:07.794Z,16.50
2019-05-20T07:10:37.195Z,16.60
2019-05-20T07:13:06.700Z,16.70
2019-05-20T07:15:36.355Z,16.90
2019-05-20T07:18:05.870Z,17.10
2019-05-20T07:20:35.235Z,17.20
2019-05-20T07:23:04.607Z,17.30
2019-05-20T07:25:33.944Z,17.50
2019-05-20T07:28:03.319Z,17.60
2019-05-20T07:30:32.671Z,17.50
2019-05-20T07:33:02.129Z,17.50
2019-05-20T07:35:31.673Z,17.30
2019-05-20T07:38:01.078Z,17.20
2019-05-20T07:40:32.053Z,17.20
2019-05-20T07:43:01.684Z,17.30
2019-05-20T07:45:32.575Z,17.20
2019-05-20T07:48:02.131Z,17.10
2019-05-20T07:50:31.572Z,17.10
2019-05-20T07:53:01.091Z,17.10
2019-05-20T07:55:30.989Z,17.20
2019-05-20T07:58:03.713Z,17.10
2019-05-20T08:00:33.107Z,17.20
2019-05-20T08:03:02.508Z,17.20
2019-05-20T08:05:31.935Z,17.20
2019-05-20T08:08:01.450Z,17.00
2019-05-20T08:10:30.652Z,16.80
2019-05-20T08:13:00.012Z,16.80
2019-05-20T08:15:29.394Z,16.80
2019-05-20T08:17:58.850Z,17.00
2019-05-20T08:20:28.378Z,17.20
2019-05-20T08:22:57.930Z,17.30
2019-05-20T08:25:27.184Z,17.50
2019-05-20T08:27:56.528Z,17.70
2019-05-20T08:30:37.185Z,17.90
2019-05-20T08:33:06.473Z,17.90
2019-05-20T08:35:35.821Z,17.80
2019-05-20T08:38:05.288Z,17.90
2019-05-20T08:40:34.654Z,18.00
2019-05-20T08:43:04.005Z,18.10
2019-05-20T08:45:33.307Z,18.00
2019-05-20T08:48:02.657Z,17.90
2019-05-20T08:50:31.973Z,18.00
2019-05-20T08:53:01.458Z,18.30
2019-05-20T08:55:31.756Z,18.50
2019-05-20T08:58:01.240Z,18.70
2019-05-20T09:00:30.760Z,18.70
2019-05-20T09:03:00.345Z,18.70
2019-05-20T09:05:29.807Z,19.00
2019-05-20T09:08:03.398Z,19.00
2019-05-20T09:10:30.345Z,18.90
2019-05-20T09:12:59.776Z,18.90
2019-05-20T09:15:29.495Z,19.00
2019-05-20T09:17:59.072Z,19.20
2019-05-20T09:20:28.385Z,19.40
2019-05-20T09:22:57.775Z,19.50
2019-05-20T09:25:32.538Z,19.80
2019-05-20T09:28:02.015Z,19.80
2019-05-20T09:30:31.380Z,20.00
2019-05-20T09:33:00.919Z,20.10
2019-05-20T09:35:30.372Z,20.30
2019-05-20T09:37:59.665Z,20.20
2019-05-20T09:40:47.964Z,20.30
2019-05-20T09:43:17.516Z,20.40
2019-05-20T09:45:46.946Z,20.50
2019-05-20T09:48:16.399Z,20.60
2019-05-20T09:50:45.653Z,20.90
2019-05-20T09:53:14.982Z,21.20
2019-05-20T09:55:44.330Z,21.30
2019-05-20T09:58:13.678Z,21.30
2019-05-20T10:00:43.000Z,21.40
2019-05-20T10:03:12.259Z,21.50
2019-05-20T10:05:41.692Z,21.80
2019-05-20T10:08:10.985Z,22.30
2019-05-20T10:10:40.460Z,22.70
2019-05-20T10:13:10.011Z,23.40
2019-05-20T10:15:39.447Z,23.40
2019-05-20T10:18:09.022Z,23.90
2019-05-20T10:20:38.266Z,24.40
2019-05-20T10:23:07.653Z,24.80
2019-05-20T10:25:36.966Z,24.50
2019-05-20T10:28:06.559Z,24.50
2019-05-20T10:30:35.945Z,24.50
2019-05-20T10:33:09.303Z,23.90
2019-05-20T10:35:36.455Z,23.40
2019-05-20T10:38:06.016Z,23.10
2019-05-20T10:40:35.388Z,23.00
2019-05-20T10:43:04.856Z,22.60
2019-05-20T10:45:34.889Z,22.50
2019-05-20T10:48:08.399Z,22.60
2019-05-20T10:50:35.912Z,22.50
2019-05-20T10:53:05.408Z,22.20
2019-05-20T10:55:34.846Z,22.00
2019-05-20T10:58:04.227Z,21.60
2019-05-20T11:00:33.620Z,21.40
2019-05-20T11:03:03.145Z,21.10
2019-05-20T11:05:32.636Z,21.10
2019-05-20T11:08:02.086Z,20.70
2019-05-20T11:10:31.385Z,20.50
2019-05-20T11:13:00.886Z,20.10
2019-05-20T11:15:30.174Z,20.00
2019-05-20T11:17:59.443Z,20.00
2019-05-20T11:20:28.843Z,20.10
2019-05-20T11:23:01.002Z,20.20
2019-05-20T11:25:29.306Z,20.30
2019-05-20T11:27:58.630Z,20.60
2019-05-20T11:30:28.071Z,21.10
2019-05-20T11:32:57.477Z,21.90
2019-05-20T11:35:26.738Z,22.70
2019-05-20T11:37:56.338Z,23.30
2019-05-20T11:40:25.751Z,24.20
2019-05-20T11:42:55.318Z,25.20
2019-05-20T11:45:24.793Z,25.70
2019-05-20T11:47:54.329Z,25.70
2019-05-20T11:50:23.688Z,25.70
2019-05-20T11:52:53.261Z,25.70
2019-05-20T11:55:22.916Z,25.70
2019-05-20T11:57:52.366Z,25.60
2019-05-20T12:00:21.855Z,26.00
2019-05-20T12:02:51.212Z,26.60
2019-05-20T12:05:20.681Z,27.30
2019-05-20T12:07:50.111Z,27.80
2019-05-20T12:10:19.915Z,28.00
2019-05-20T12:12:49.189Z,28.60
2019-05-20T12:15:18.614Z,28.30
2019-05-20T12:17:47.994Z,27.30
2019-05-20T12:20:17.431Z,26.40
2019-05-20T12:22:46.814Z,25.70
2019-05-20T12:25:16.100Z,25.10
2019-05-20T12:27:45.723Z,24.80
2019-05-20T12:30:15.152Z,25.00
2019-05-20T12:32:44.651Z,25.60
2019-05-20T12:35:14.145Z,25.60
2019-05-20T12:37:45.734Z,25.20
2019-05-20T12:40:14.999Z,24.80
2019-05-20T12:42:44.399Z,24.20
2019-05-20T12:45:13.823Z,23.60
2019-05-20T12:47:43.218Z,23.10
2019-05-20T12:50:12.610Z,22.80
2019-05-20T12:52:41.984Z,22.80
2019-05-20T12:55:11.831Z,22.60
2019-05-20T12:57:41.250Z,22.40
2019-05-20T13:00:12.344Z,22.10
2019-05-20T13:02:43.370Z,22.60
2019-05-20T13:05:14.060Z,24.00
2019-05-20T13:07:43.478Z,24.10
2019-05-20T13:10:28.246Z,23.80
2019-05-20T13:12:44.046Z,23.60
2019-05-20T13:15:14.481Z,23.40
2019-05-20T13:17:45.234Z,23.30
2019-05-20T13:20:15.752Z,23.30
2019-05-20T13:22:45.146Z,23.40
2019-05-20T13:25:14.545Z,23.40
2019-05-20T13:27:44.015Z,23.70
2019-05-20T13:30:14.842Z,25.00
2019-05-20T13:32:44.175Z,25.40
2019-05-20T13:35:13.591Z,25.30
2019-05-20T13:37:43.017Z,25.10
2019-05-20T13:40:12.543Z,25.10
2019-05-20T13:42:41.982Z,26.10
2019-05-20T13:45:11.401Z,28.70
2019-05-20T13:47:40.721Z,30.80
2019-05-20T13:50:10.135Z,32.70
2019-05-20T13:52:39.630Z,33.90
2019-05-20T13:55:09.683Z,32.50
2019-05-20T13:57:39.359Z,32.10
2019-05-20T14:00:08.986Z,33.30
2019-05-20T14:02:38.514Z,33.80
2019-05-20T14:05:07.996Z,33.00
2019-05-20T14:07:37.414Z,31.40
2019-05-20T14:10:08.071Z,29.80
2019-05-20T14:12:37.531Z,28.10
2019-05-20T14:15:09.835Z,26.70
2019-05-20T14:17:39.234Z,25.40
2019-05-20T14:20:08.691Z,24.30
2019-05-20T14:22:38.987Z,23.30
2019-05-20T14:25:08.445Z,22.20
2019-05-20T14:27:37.913Z,21.00
2019-05-20T14:30:08.380Z,19.80
2019-05-20T14:32:37.839Z,19.10
2019-05-20T14:35:07.626Z,18.80
2019-05-20T14:37:36.975Z,18.50
2019-05-20T14:40:06.944Z,18.40
2019-05-20T14:42:36.262Z,18.30
2019-05-20T14:45:06.948Z,18.20
2019-05-20T14:47:36.419Z,18.20
2019-05-20T14:50:07.983Z,18.20
2019-05-20T14:52:37.402Z,18.20
2019-05-20T14:55:07.173Z,18.10
2019-05-20T14:57:36.632Z,18.10
2019-05-20T15:00:08.432Z,18.00
2019-05-20T15:02:37.834Z,18.00
2019-05-20T15:05:08.115Z,18.00
2019-05-20T15:07:37.714Z,17.90
2019-05-20T15:10:10.123Z,17.80
2019-05-20T15:12:39.526Z,17.70
2019-05-20T15:15:09.329Z,17.70
2019-05-20T15:17:38.737Z,17.60
2019-05-20T15:20:08.900Z,17.70
2019-05-20T15:22:38.354Z,17.90
2019-05-20T15:25:08.916Z,18.00
2019-05-20T15:27:38.382Z,18.10
2019-05-20T15:30:09.466Z,18.20
2019-05-20T15:32:38.776Z,18.20
2019-05-20T15:35:08.340Z,18.30
2019-05-20T15:37:37.779Z,18.40
2019-05-20T15:40:07.257Z,18.40
2019-05-20T15:42:36.716Z,18.50
2019-05-20T15:45:09.147Z,18.40
2019-05-20T15:47:38.463Z,18.30
2019-05-20T15:50:10.253Z,18.40
2019-05-20T15:52:39.162Z,18.30
2019-05-20T15:55:08.639Z,18.20
2019-05-20T15:57:38.122Z,18.00
2019-05-20T16:00:10.624Z,17.90
2019-05-20T16:02:39.944Z,17.90
2019-05-20T16:05:09.352Z,17.80
2019-05-20T16:07:38.840Z,17.70
2019-05-20T16:10:08.312Z,17.60
2019-05-20T16:12:37.649Z,17.50
2019-05-20T16:15:08.357Z,17.50
2019-05-20T16:17:37.819Z,17.40
2019-05-20T16:20:07.941Z,17.30
2019-05-20T16:22:37.294Z,17.20
2019-05-20T16:25:08.319Z,17.10
2019-05-20T16:27:37.707Z,17.00
2019-05-20T16:30:10.267Z,16.90
2019-05-20T16:32:39.607Z,16.90
2019-05-20T16:35:09.567Z,16.90
2019-05-20T16:37:39.002Z,16.90
2019-05-20T16:40:10.421Z,16.90
2019-05-20T16:42:40.132Z,16.90
2019-05-20T16:45:11.850Z,16.80
2019-05-20T16:47:41.252Z,16.80
2019-05-20T16:50:10.878Z,16.80
2019-05-20T16:52:40.306Z,16.90
2019-05-20T16:55:09.810Z,17.00
2019-05-20T16:57:39.276Z,17.10
2019-05-20T17:00:29.226Z,17.20
2019-05-20T17:02:39.981Z,17.20
2019-05-20T17:05:09.450Z,17.30
2019-05-20T17:07:39.133Z,17.30
2019-05-20T17:10:08.606Z,17.40
2019-05-20T17:12:38.022Z,17.70
2019-05-20T17:15:08.326Z,18.20
2019-05-20T17:17:37.792Z,18.60
2019-05-20T17:20:08.263Z,18.70
2019-05-20T17:22:37.793Z,18.90
2019-05-20T17:25:08.211Z,19.20
2019-05-20T17:27:37.882Z,19.40
2019-05-20T17:30:10.526Z,19.60
2019-05-20T17:32:39.915Z,19.70
2019-05-20T17:35:09.468Z,19.90
2019-05-20T17:37:38.978Z,20.00
2019-05-20T17:40:08.936Z,20.00
2019-05-20T17:42:38.356Z,19.90
2019-05-20T17:45:07.849Z,19.90
2019-05-20T17:47:37.346Z,19.90
2019-05-20T17:50:07.958Z,19.90
2019-05-20T17:52:37.282Z,19.80
2019-05-20T17:55:07.449Z,19.70
2019-05-20T17:57:37.034Z,19.40
2019-05-20T18:00:09.882Z,19.10
2019-05-20T18:02:39.465Z,18.90
2019-05-20T18:05:08.925Z,18.60
2019-05-20T18:07:38.424Z,18.50
2019-05-20T18:10:09.894Z,18.30
2019-05-20T18:12:39.271Z,18.20
2019-05-20T18:15:09.069Z,18.00
2019-05-20T18:17:38.559Z,17.80
2019-05-20T18:20:08.129Z,17.70
2019-05-20T18:22:37.548Z,17.60
2019-05-20T18:25:07.832Z,17.50
2019-05-20T18:27:37.337Z,17.40
2019-05-20T18:30:08.027Z,17.20
2019-05-20T18:32:38.627Z,17.10
2019-05-20T18:35:08.169Z,16.90
2019-05-20T18:37:37.586Z,16.70
2019-05-20T18:40:14.075Z,16.60
2019-05-20T18:42:38.473Z,16.50
2019-05-20T18:45:07.960Z,16.40
2019-05-20T18:47:37.440Z,16.40
2019-05-20T18:50:07.970Z,16.30
2019-05-20T18:52:37.398Z,16.20
2019-05-20T18:55:07.962Z,16.20
2019-05-20T18:57:37.422Z,16.10
2019-05-20T19:00:09.393Z,16.10
2019-05-20T19:02:38.803Z,16.00
2019-05-20T19:05:08.505Z,16.00
2019-05-20T19:07:37.959Z,15.90
2019-05-20T19:10:07.436Z,15.90
2019-05-20T19:12:37.016Z,15.90
2019-05-20T19:15:07.870Z,15.90
2019-05-20T19:17:37.715Z,15.90
2019-05-20T19:20:26.810Z,15.80
2019-05-20T19:22:56.401Z,15.80
2019-05-20T19:25:36.974Z,15.70
2019-05-20T19:27:57.607Z,15.70
2019-05-20T19:30:27.144Z,15.70
2019-05-20T19:32:57.010Z,15.60
2019-05-20T19:35:26.428Z,15.50
2019-05-20T19:37:56.170Z,15.50
2019-05-20T19:40:25.625Z,15.40
2019-05-20T19:42:55.092Z,15.30
2019-05-20T19:45:24.503Z,15.20
2019-05-20T19:47:54.158Z,15.00
2019-05-20T19:50:23.653Z,14.90
2019-05-20T19:52:53.182Z,14.80
2019-05-20T19:55:22.875Z,14.80
2019-05-20T19:57:52.324Z,14.70
2019-05-20T20:00:21.776Z,14.50
2019-05-20T20:02:54.294Z,14.50
2019-05-20T20:05:23.702Z,14.40
2019-05-20T20:07:53.300Z,14.40
2019-05-20T20:10:22.911Z,14.30
2019-05-20T20:12:52.402Z,14.20
2019-05-20T20:15:21.794Z,14.20
2019-05-20T20:17:51.251Z,14.10
2019-05-20T20:20:20.674Z,14.10
2019-05-20T20:22:50.151Z,14.10
2019-05-20T20:25:19.772Z,14.00
2019-05-20T20:27:49.256Z,13.90
2019-05-20T20:30:18.575Z,13.80
2019-05-20T20:32:48.480Z,13.80
2019-05-20T20:35:17.968Z,13.80
2019-05-20T20:37:47.438Z,13.80
2019-05-20T20:40:17.265Z,13.80
2019-05-20T20:42:46.634Z,13.80
2019-05-20T20:45:16.304Z,13.80
2019-05-20T20:47:45.705Z,13.80
2019-05-20T20:50:15.218Z,13.70
2019-05-20T20:52:44.619Z,13.70
2019-05-20T20:55:14.072Z,13.60
2019-05-20T20:57:43.575Z,13.50
2019-05-20T21:00:13.060Z,13.40
2019-05-20T21:02:52.641Z,13.40
2019-05-20T21:05:13.822Z,13.40
2019-05-20T21:07:43.299Z,13.30
2019-05-20T21:10:12.693Z,13.30
2019-05-20T21:12:42.107Z,13.20
2019-05-20T21:15:12.079Z,13.10
2019-05-20T21:17:41.487Z,13.10
2019-05-20T21:20:10.839Z,13.10
2019-05-20T21:22:40.172Z,13.10
2019-05-20T21:25:09.459Z,13.10
2019-05-20T21:27:38.892Z,13.00
2019-05-20T21:30:09.346Z,13.10
2019-05-20T21:32:38.664Z,13.10
2019-05-20T21:35:08.088Z,13.10
2019-05-20T21:37:37.547Z,13.10
2019-05-20T21:40:07.022Z,13.00
2019-05-20T21:42:36.463Z,13.10
2019-05-20T21:45:07.786Z,13.00
2019-05-20T21:47:37.254Z,13.00
2019-05-20T21:50:07.539Z,13.00
2019-05-20T21:52:36.934Z,12.90
2019-05-20T21:55:07.511Z,12.90
2019-05-20T21:57:36.981Z,12.90
2019-05-20T22:00:11.868Z,12.90
2019-05-20T22:02:41.302Z,12.90
2019-05-20T22:05:10.694Z,12.80
2019-05-20T22:07:40.279Z,12.90
2019-05-20T22:10:09.629Z,12.90
2019-05-20T22:12:39.029Z,12.90
2019-05-20T22:15:08.430Z,12.90
2019-05-20T22:17:37.934Z,12.90
2019-05-20T22:20:08.294Z,12.90
2019-05-20T22:22:42.103Z,12.90
2019-05-20T22:25:11.499Z,12.90
2019-05-20T22:27:40.987Z,12.80
2019-05-20T22:30:10.401Z,12.80
2019-05-20T22:32:39.795Z,12.80
2019-05-20T22:35:09.188Z,12.80
2019-05-20T22:37:38.540Z,12.80
2019-05-20T22:40:08.035Z,12.80
2019-05-20T22:42:37.506Z,12.70
2019-05-20T22:45:06.876Z,12.70
2019-05-20T22:47:36.316Z,12.70
2019-05-20T22:50:06.123Z,12.70
2019-05-20T22:52:35.599Z,12.70
2019-05-20T22:55:06.119Z,12.70
2019-05-20T22:57:35.519Z,12.70
2019-05-20T23:00:05.710Z,12.60
2019-05-20T23:02:35.236Z,12.60
2019-05-20T23:05:05.314Z,12.60
2019-05-20T23:07:34.681Z,12.60
2019-05-20T23:10:06.331Z,12.50
2019-05-20T23:12:35.651Z,12.50
2019-05-20T23:15:07.252Z,12.40
2019-05-20T23:17:36.519Z,12.40
2019-05-20T23:20:08.864Z,12.40
2019-05-20T23:22:38.282Z,12.40
2019-05-20T23:25:07.814Z,12.40
2019-05-20T23:27:37.201Z,12.40
2019-05-20T23:30:07.824Z,12.40
2019-05-20T23:32:37.146Z,12.40
2019-05-20T23:35:07.641Z,12.40
2019-05-20T23:37:37.065Z,12.40
2019-05-20T23:40:07.291Z,12.30
2019-05-20T23:42:36.607Z,12.30
2019-05-20T23:45:09.329Z,12.30
2019-05-20T23:47:38.710Z,12.30
2019-05-20T23:50:08.033Z,12.20
2019-05-20T23:52:37.435Z,12.20
2019-05-20T23:55:08.205Z,12.10
2019-05-20T23:57:37.654Z,12.10
